createdAt,value
2017-11-22T00:02:51.960Z,6.90
2017-11-22T00:06:01.723Z,6.90
2017-11-22T00:09:12.239Z,6.90
2017-11-22T00:12:23.336Z,6.90
2017-11-22T00:15:34.108Z,6.90
2017-11-22T00:18:44.244Z,6.90
2017-11-22T00:21:54.883Z,6.90
2017-11-22T00:25:04.871Z,6.80
2017-11-22T00:28:15.476Z,6.90
2017-11-22T00:31:26.125Z,6.90
2017-11-22T00:34:35.992Z,6.90
2017-11-22T00:37:46.605Z,6.80
2017-11-22T00:40:56.702Z,6.80
2017-11-22T00:44:08.060Z,6.80
2017-11-22T00:47:19.155Z,6.80
2017-11-22T00:50:28.960Z,6.80
2017-11-22T00:53:38.700Z,6.80
2017-11-22T00:56:48.528Z,6.80
2017-11-22T00:59:59.668Z,6.80
2017-11-22T01:03:09.894Z,6.80
2017-11-22T01:06:19.700Z,6.80
2017-11-22T01:09:30.353Z,6.80
2017-11-22T01:12:41.130Z,6.70
2017-11-22T01:15:52.117Z,6.70
2017-11-22T01:19:01.918Z,6.70
2017-11-22T01:22:12.615Z,6.70
2017-11-22T01:25:22.827Z,6.70
2017-11-22T01:28:33.233Z,6.70
2017-11-22T01:31:43.235Z,6.70
2017-11-22T01:34:53.052Z,6.70
2017-11-22T01:38:03.709Z,6.70
2017-11-22T01:41:15.144Z,6.70
2017-11-22T01:44:25.099Z,6.60
2017-11-22T01:47:35.143Z,6.60
2017-11-22T01:50:45.761Z,6.60
2017-11-22T01:53:56.816Z,6.60
2017-11-22T01:57:07.105Z,6.60
2017-11-22T02:00:16.953Z,6.60
2017-11-22T02:03:26.777Z,6.60
2017-11-22T02:06:36.682Z,6.60
2017-11-22T02:09:46.453Z,6.60
2017-11-22T02:12:56.517Z,6.60
2017-11-22T02:16:06.381Z,6.60
2017-11-22T02:19:16.925Z,6.60
2017-11-22T02:22:26.961Z,6.60
2017-11-22T02:25:36.905Z,6.60
2017-11-22T02:28:46.864Z,6.60
2017-11-22T02:31:56.364Z,6.60
2017-11-22T02:35:07.198Z,6.60
2017-11-22T02:38:17.501Z,6.60
2017-11-22T02:41:27.253Z,6.60
2017-11-22T02:44:37.153Z,6.60
2017-11-22T02:47:47.064Z,6.60
2017-11-22T02:50:56.933Z,6.60
2017-11-22T02:54:08.500Z,6.60
2017-11-22T02:57:19.187Z,6.60
2017-11-22T03:00:29.672Z,6.50
2017-11-22T03:03:39.701Z,6.50
2017-11-22T03:06:51.026Z,6.50
2017-11-22T03:10:00.794Z,6.50
2017-11-22T03:13:10.513Z,6.50
2017-11-22T03:16:20.520Z,6.50
2017-11-22T03:19:30.381Z,6.50
2017-11-22T03:22:40.949Z,6.50
2017-11-22T03:25:51.129Z,6.40
2017-11-22T03:29:00.993Z,6.40
2017-11-22T03:32:10.963Z,6.50
2017-11-22T03:35:20.970Z,6.40
2017-11-22T03:38:31.104Z,6.40
2017-11-22T03:41:40.946Z,6.40
2017-11-22T03:44:50.790Z,6.40
2017-11-22T03:48:18.510Z,6.40
2017-11-22T03:51:34.489Z,6.40
2017-11-22T03:54:44.888Z,6.40
2017-11-22T03:57:59.373Z,6.30
2017-11-22T04:01:12.084Z,6.30
2017-11-22T04:04:27.950Z,6.30
2017-11-22T04:07:37.753Z,6.30
2017-11-22T04:10:48.690Z,6.30
2017-11-22T04:13:58.816Z,6.30
2017-11-22T04:17:08.638Z,6.30
2017-11-22T04:20:24.097Z,6.30
2017-11-22T04:23:35.344Z,6.20
2017-11-22T04:26:46.244Z,6.20
2017-11-22T04:29:56.293Z,6.20
2017-11-22T04:33:06.053Z,6.20
2017-11-22T04:36:16.007Z,6.20
2017-11-22T04:39:26.464Z,6.20
2017-11-22T04:42:36.462Z,6.20
2017-11-22T04:45:48.714Z,6.20
2017-11-22T04:48:58.809Z,6.20
2017-11-22T04:52:08.925Z,6.20
2017-11-22T04:55:18.901Z,6.20
2017-11-22T04:58:28.948Z,6.10
2017-11-22T05:01:39.068Z,6.10
2017-11-22T05:04:48.957Z,6.10
2017-11-22T05:07:58.891Z,6.10
2017-11-22T05:11:08.578Z,6.10
2017-11-22T05:14:19.310Z,6.00
2017-11-22T05:17:30.127Z,6.00
2017-11-22T05:20:40.981Z,5.90
2017-11-22T05:23:52.623Z,5.90
2017-11-22T05:27:03.168Z,5.90
2017-11-22T05:30:13.122Z,5.90
2017-11-22T05:33:23.085Z,5.90
2017-11-22T05:36:33.674Z,5.90
2017-11-22T05:39:44.690Z,6.00
2017-11-22T05:42:54.866Z,5.90
2017-11-22T05:46:04.655Z,6.00
2017-11-22T05:49:15.396Z,6.00
2017-11-22T05:52:25.670Z,6.00
2017-11-22T05:55:36.083Z,6.00
2017-11-22T05:58:46.792Z,6.00
2017-11-22T06:01:58.517Z,6.10
2017-11-22T06:05:09.174Z,6.00
2017-11-22T06:08:19.665Z,6.10
2017-11-22T06:11:29.451Z,6.10
2017-11-22T06:14:40.117Z,6.10
2017-11-22T06:17:49.947Z,6.10
2017-11-22T06:21:01.294Z,6.10
2017-11-22T06:24:11.456Z,6.10
2017-11-22T06:27:21.181Z,6.10
2017-11-22T06:30:30.885Z,6.20
2017-11-22T06:33:42.406Z,6.20
2017-11-22T06:36:52.404Z,6.20
2017-11-22T06:40:02.181Z,6.20
2017-11-22T06:43:12.088Z,6.20
2017-11-22T06:46:21.797Z,6.20
2017-11-22T06:49:31.707Z,6.30
2017-11-22T06:52:41.661Z,6.30
2017-11-22T06:55:52.191Z,6.30
2017-11-22T06:59:03.233Z,6.30
2017-11-22T07:02:18.552Z,6.30
2017-11-22T07:05:29.411Z,6.30
2017-11-22T07:08:39.250Z,6.30
2017-11-22T07:11:49.369Z,6.30
2017-11-22T07:15:02.180Z,6.30
2017-11-22T07:18:12.954Z,6.40
2017-11-22T07:21:23.077Z,6.40
2017-11-22T07:24:32.957Z,6.40
2017-11-22T07:27:43.920Z,6.50
2017-11-22T07:30:53.950Z,6.50
2017-11-22T07:34:03.775Z,6.50
2017-11-22T07:37:19.253Z,6.50
2017-11-22T07:40:29.950Z,6.50
2017-11-22T07:43:39.966Z,6.50
2017-11-22T07:46:54.268Z,6.50
2017-11-22T07:50:04.640Z,6.50
2017-11-22T07:53:14.796Z,6.50
2017-11-22T07:56:25.512Z,6.60
2017-11-22T07:59:36.078Z,6.60
2017-11-22T08:02:51.819Z,6.60
2017-11-22T08:06:03.011Z,6.60
2017-11-22T08:09:13.362Z,6.60
2017-11-22T08:12:23.276Z,6.60
2017-11-22T08:15:33.861Z,6.60
2017-11-22T08:18:44.635Z,6.60
2017-11-22T08:21:55.454Z,6.60
2017-11-22T08:25:08.401Z,6.60
2017-11-22T08:28:18.951Z,6.60
2017-11-22T08:31:29.406Z,6.70
2017-11-22T08:34:40.086Z,6.60
2017-11-22T08:37:50.642Z,6.70
2017-11-22T08:41:02.068Z,6.70
2017-11-22T08:44:12.688Z,6.70
2017-11-22T08:47:24.010Z,6.80
2017-11-22T08:50:34.157Z,6.70
2017-11-22T08:53:44.106Z,6.80
2017-11-22T09:00:34.713Z,6.80
2017-11-22T09:03:45.155Z,6.80
2017-11-22T09:06:55.270Z,6.80
2017-11-22T09:10:04.957Z,6.80
2017-11-22T09:13:15.696Z,6.80
2017-11-22T09:16:26.410Z,6.90
2017-11-22T09:19:40.312Z,6.90
2017-11-22T09:22:54.372Z,6.90
2017-11-22T09:26:05.008Z,6.90
2017-11-22T09:29:14.942Z,7.00
2017-11-22T09:32:31.681Z,7.00
2017-11-22T09:35:45.676Z,7.00
2017-11-22T09:38:56.429Z,7.00
2017-11-22T09:42:06.291Z,7.10
2017-11-22T09:45:16.876Z,7.10
2017-11-22T09:48:27.912Z,7.10
2017-11-22T09:51:38.029Z,7.10
2017-11-22T09:54:47.730Z,7.10
2017-11-22T09:57:58.327Z,7.20
2017-11-22T10:01:09.544Z,7.20
2017-11-22T10:04:19.869Z,7.20
2017-11-22T10:07:30.703Z,7.20
2017-11-22T10:10:41.497Z,7.30
2017-11-22T10:13:52.531Z,7.30
2017-11-22T10:17:09.015Z,7.30
2017-11-22T10:20:20.801Z,7.30
2017-11-22T10:23:32.874Z,7.40
2017-11-22T10:26:49.136Z,7.40
2017-11-22T10:30:05.338Z,7.50
2017-11-22T10:33:15.370Z,7.50
2017-11-22T10:36:26.895Z,7.50
2017-11-22T10:39:36.901Z,7.60
2017-11-22T10:42:47.754Z,7.60
2017-11-22T10:45:57.704Z,7.60
2017-11-22T10:49:08.637Z,7.70
2017-11-22T10:52:19.812Z,7.70
2017-11-22T10:55:30.694Z,7.70
2017-11-22T10:58:42.004Z,7.80
2017-11-22T11:01:53.308Z,7.90
2017-11-22T11:05:03.600Z,7.90
2017-11-22T11:08:14.372Z,7.90
2017-11-22T11:11:25.461Z,8.00
2017-11-22T11:14:36.509Z,8.10
2017-11-22T11:17:48.356Z,8.10
2017-11-22T11:20:59.375Z,8.00
2017-11-22T11:24:11.159Z,8.10
2017-11-22T11:27:22.766Z,8.10
2017-11-22T11:30:34.127Z,8.20
2017-11-22T11:33:45.289Z,8.10
2017-11-22T11:36:56.352Z,8.20
2017-11-22T11:40:06.680Z,8.20
2017-11-22T11:43:17.294Z,8.20
2017-11-22T11:46:27.769Z,8.30
2017-11-22T11:49:37.649Z,8.40
2017-11-22T11:52:47.625Z,8.40
2017-11-22T11:55:57.980Z,8.30
2017-11-22T11:59:08.067Z,8.30
2017-11-22T12:02:19.037Z,8.30
2017-11-22T12:05:30.384Z,8.40
2017-11-22T12:08:40.598Z,8.40
2017-11-22T12:11:51.420Z,8.40
2017-11-22T12:15:02.829Z,8.50
2017-11-22T12:18:14.185Z,8.50
2017-11-22T12:21:26.687Z,8.50
2017-11-22T12:24:38.561Z,8.50
2017-11-22T12:27:48.451Z,8.40
2017-11-22T12:30:58.322Z,8.50
2017-11-22T12:34:08.206Z,8.50
2017-11-22T12:37:19.119Z,8.50
2017-11-22T12:40:29.192Z,8.50
2017-11-22T12:43:39.738Z,8.50
2017-11-22T12:46:50.522Z,8.50
2017-11-22T12:50:00.684Z,8.50
2017-11-22T12:53:11.264Z,8.50
2017-11-22T12:56:21.605Z,8.50
2017-11-22T12:59:32.072Z,8.50
2017-11-22T13:02:42.332Z,8.50
2017-11-22T13:05:52.253Z,8.50
2017-11-22T13:09:02.462Z,8.50
2017-11-22T13:12:12.565Z,8.60
2017-11-22T13:15:22.964Z,8.50
2017-11-22T13:18:33.425Z,8.50
2017-11-22T13:21:44.261Z,8.60
2017-11-22T13:24:54.625Z,8.60
2017-11-22T13:28:04.420Z,8.70
2017-11-22T13:31:15.053Z,8.70
2017-11-22T13:34:25.752Z,8.80
2017-11-22T13:37:35.598Z,8.80
2017-11-22T13:40:45.643Z,8.90
2017-11-22T13:43:55.820Z,8.90
2017-11-22T13:47:06.878Z,9.00
2017-11-22T13:50:16.594Z,9.00
2017-11-22T13:53:26.446Z,9.20
2017-11-22T13:56:37.949Z,9.20
2017-11-22T13:59:47.481Z,9.20
2017-11-22T14:02:57.382Z,9.40
2017-11-22T14:09:20.191Z,9.40
2017-11-22T14:12:30.586Z,9.20
2017-11-22T14:15:40.938Z,9.10
2017-11-22T14:18:50.922Z,9.00
2017-11-22T14:22:01.765Z,9.00
2017-11-22T14:25:11.509Z,9.00
2017-11-22T14:28:21.536Z,9.00
2017-11-22T14:31:31.169Z,9.00
2017-11-22T14:34:41.127Z,8.80
2017-11-22T14:37:51.513Z,8.80
2017-11-22T14:41:01.774Z,8.80
2017-11-22T14:44:11.305Z,8.70
2017-11-22T14:47:21.526Z,8.70
2017-11-22T14:50:31.443Z,8.70
2017-11-22T14:53:41.453Z,8.60
2017-11-22T14:56:53.069Z,8.60
2017-11-22T15:00:04.264Z,8.50
2017-11-22T15:03:14.337Z,8.50
2017-11-22T15:06:24.839Z,8.40
2017-11-22T15:09:34.794Z,8.40
2017-11-22T15:12:44.598Z,8.40
2017-11-22T15:15:54.332Z,8.30
2017-11-22T15:19:04.212Z,8.30
2017-11-22T15:22:15.008Z,8.30
2017-11-22T15:25:26.100Z,8.30
2017-11-22T15:28:36.691Z,8.30
2017-11-22T15:31:46.293Z,8.20
2017-11-22T15:34:56.375Z,8.20
2017-11-22T15:38:06.304Z,8.10
2017-11-22T15:41:16.469Z,8.10
2017-11-22T15:44:26.699Z,8.00
2017-11-22T15:47:36.875Z,8.00
2017-11-22T15:50:47.088Z,8.00
2017-11-22T15:53:57.909Z,7.90
2017-11-22T15:57:08.222Z,7.90
2017-11-22T16:00:18.795Z,7.80
2017-11-22T16:03:30.530Z,7.80
2017-11-22T16:06:42.194Z,7.70
2017-11-22T16:09:52.487Z,7.70
2017-11-22T16:13:03.435Z,7.70
2017-11-22T16:16:14.365Z,7.60
2017-11-22T16:19:25.009Z,7.50
2017-11-22T16:22:35.327Z,7.30
2017-11-22T16:25:46.624Z,7.30
2017-11-22T16:28:57.729Z,7.30
2017-11-22T16:32:09.290Z,7.40
2017-11-22T16:35:20.450Z,7.30
2017-11-22T16:38:31.084Z,7.30
2017-11-22T16:41:41.976Z,7.40
2017-11-22T16:44:52.565Z,7.40
2017-11-22T16:48:03.554Z,7.50
2017-11-22T16:51:13.986Z,7.50
2017-11-22T16:54:25.830Z,7.40
2017-11-22T16:57:35.999Z,7.40
2017-11-22T17:00:45.981Z,7.40
2017-11-22T17:03:56.578Z,7.40
2017-11-22T17:07:06.312Z,7.50
2017-11-22T17:10:16.225Z,7.50
2017-11-22T17:13:26.003Z,7.40
2017-11-22T17:16:36.320Z,7.50
2017-11-22T17:19:46.394Z,7.50
2017-11-22T17:22:57.210Z,7.60
2017-11-22T17:26:07.100Z,7.60
2017-11-22T17:29:16.840Z,7.60
2017-11-22T17:32:27.156Z,7.70
2017-11-22T17:35:37.182Z,7.60
2017-11-22T17:38:46.949Z,7.60
2017-11-22T17:41:56.956Z,7.50
2017-11-22T17:45:07.120Z,7.40
2017-11-22T17:48:17.739Z,7.40
2017-11-22T17:51:28.408Z,7.30
2017-11-22T17:54:38.676Z,7.30
2017-11-22T17:57:48.655Z,7.30
2017-11-22T18:00:58.731Z,7.30
2017-11-22T18:04:09.562Z,7.20
2017-11-22T18:07:20.008Z,7.20
2017-11-22T18:10:29.481Z,7.40
2017-11-22T18:13:39.069Z,7.40
2017-11-22T18:16:49.099Z,7.40
2017-11-22T18:19:58.990Z,7.40
2017-11-22T18:23:09.813Z,7.40
2017-11-22T18:26:20.217Z,7.30
2017-11-22T18:29:30.950Z,7.30
2017-11-22T18:32:42.439Z,7.40
2017-11-22T18:35:52.640Z,7.40
2017-11-22T18:39:03.628Z,7.50
2017-11-22T18:42:14.548Z,7.50
2017-11-22T18:45:24.377Z,7.50
2017-11-22T18:48:34.409Z,7.60
2017-11-22T18:51:45.410Z,7.50
2017-11-22T18:54:56.118Z,7.60
2017-11-22T18:58:06.125Z,7.50
2017-11-22T19:01:16.113Z,7.50
2017-11-22T19:04:26.207Z,7.40
2017-11-22T19:07:37.426Z,7.20
2017-11-22T19:10:48.303Z,7.20
2017-11-22T19:13:59.003Z,7.10
2017-11-22T19:17:10.530Z,7.10
2017-11-22T19:20:20.706Z,7.10
2017-11-22T19:23:32.078Z,7.10
2017-11-22T19:26:43.016Z,7.00
2017-11-22T19:29:53.073Z,7.00
2017-11-22T19:33:03.658Z,7.00
2017-11-22T19:36:13.561Z,6.80
2017-11-22T19:39:25.103Z,7.00
2017-11-22T19:42:36.675Z,7.10
2017-11-22T19:45:47.154Z,7.00
2017-11-22T19:48:57.771Z,7.00
2017-11-22T19:52:07.921Z,7.00
2017-11-22T19:55:17.860Z,7.10
2017-11-22T19:58:28.706Z,7.10
2017-11-22T20:01:39.395Z,7.00
2017-11-22T20:04:49.965Z,6.80
2017-11-22T20:08:11.692Z,6.80
2017-11-22T20:11:22.056Z,6.90
2017-11-22T20:14:31.963Z,7.00
2017-11-22T20:17:41.845Z,7.00
2017-11-22T20:20:51.955Z,7.10
2017-11-22T20:24:02.514Z,7.30
2017-11-22T20:27:13.210Z,7.40
2017-11-22T20:30:23.757Z,7.10
2017-11-22T20:33:34.288Z,7.10
2017-11-22T20:36:44.434Z,7.20
2017-11-22T20:39:55.140Z,7.10
2017-11-22T20:43:04.943Z,6.90
2017-11-22T20:46:15.309Z,6.90
2017-11-22T20:49:25.881Z,6.70
2017-11-22T20:52:35.983Z,6.60
2017-11-22T20:55:46.664Z,6.50
2017-11-22T20:58:56.697Z,6.50
2017-11-22T21:02:07.284Z,6.50
2017-11-22T21:05:17.926Z,6.40
2017-11-22T21:08:28.604Z,6.30
2017-11-22T21:11:38.486Z,6.10
2017-11-22T21:14:49.147Z,6.00
2017-11-22T21:17:59.076Z,6.00
2017-11-22T21:21:09.269Z,6.00
2017-11-22T21:24:19.161Z,6.10
2017-11-22T21:27:29.730Z,6.10
2017-11-22T21:30:39.625Z,6.00
2017-11-22T21:33:50.346Z,5.90
2017-11-22T21:37:01.190Z,5.90
2017-11-22T21:40:11.780Z,5.80
2017-11-22T21:43:21.620Z,5.80
2017-11-22T21:46:33.169Z,5.70
2017-11-22T21:49:43.212Z,5.70
2017-11-22T21:52:52.967Z,5.80
2017-11-22T21:56:02.822Z,5.70
2017-11-22T21:59:12.017Z,5.70
2017-11-22T22:02:21.893Z,5.70
2017-11-22T22:05:31.901Z,5.60
2017-11-22T22:08:41.624Z,5.60
2017-11-22T22:11:52.202Z,5.60
2017-11-22T22:15:02.295Z,5.60
2017-11-22T22:18:12.964Z,5.60
2017-11-22T22:21:23.571Z,5.60
2017-11-22T22:24:33.797Z,5.60
2017-11-22T22:27:45.318Z,5.50
2017-11-22T22:30:56.153Z,5.50
2017-11-22T22:34:07.639Z,5.60
2017-11-22T22:37:18.662Z,6.00
2017-11-22T22:40:30.164Z,6.10
2017-11-22T22:43:40.206Z,6.10
2017-11-22T22:46:50.824Z,6.40
2017-11-22T22:50:01.504Z,6.50
2017-11-22T22:53:12.285Z,6.50
2017-11-22T22:56:22.845Z,6.70
2017-11-22T22:59:32.838Z,6.70
2017-11-22T23:02:42.620Z,6.70
2017-11-22T23:05:52.440Z,6.70
2017-11-22T23:09:02.272Z,6.70
2017-11-22T23:12:12.109Z,6.70
2017-11-22T23:15:23.328Z,6.80
2017-11-22T23:18:33.366Z,6.70
2017-11-22T23:21:44.176Z,6.80
2017-11-22T23:24:54.152Z,6.80
2017-11-22T23:28:03.817Z,7.00
2017-11-22T23:31:13.737Z,7.00
2017-11-22T23:34:24.232Z,6.90
2017-11-22T23:37:34.296Z,6.90
2017-11-22T23:40:44.076Z,6.90
2017-11-22T23:43:54.660Z,6.90
2017-11-22T23:47:05.158Z,6.90
2017-11-22T23:50:15.207Z,6.90
2017-11-22T23:53:25.116Z,6.90
2017-11-22T23:56:34.996Z,6.80
2017-11-22T23:59:44.740Z,6.80
